createdAt,value
2018-08-30T00:00:13.704Z,20.70
2018-08-30T00:02:41.120Z,20.70
2018-08-30T00:05:08.654Z,20.70
2018-08-30T00:07:36.068Z,20.60
2018-08-30T00:10:03.488Z,20.50
2018-08-30T00:12:30.919Z,20.40
2018-08-30T00:14:58.421Z,20.40
2018-08-30T00:17:25.857Z,20.50
2018-08-30T00:19:53.292Z,20.50
2018-08-30T00:22:20.734Z,20.50
2018-08-30T00:24:48.371Z,20.40
2018-08-30T00:27:15.827Z,20.40
2018-08-30T00:29:43.225Z,20.20
2018-08-30T00:32:10.792Z,20.20
2018-08-30T00:34:38.212Z,20.00
2018-08-30T00:37:05.644Z,20.00
2018-08-30T00:39:33.167Z,19.90
2018-08-30T00:42:00.600Z,19.90
2018-08-30T00:44:28.029Z,19.80
2018-08-30T00:46:55.488Z,19.80
2018-08-30T00:49:22.920Z,19.70
2018-08-30T00:51:50.420Z,19.70
2018-08-30T00:54:17.843Z,19.70
2018-08-30T00:56:45.521Z,19.60
2018-08-30T00:59:12.977Z,19.60
2018-08-30T01:01:40.386Z,19.60
2018-08-30T01:04:07.904Z,19.50
2018-08-30T01:06:35.293Z,19.40
2018-08-30T01:09:02.765Z,19.30
2018-08-30T01:11:30.327Z,19.10
2018-08-30T01:13:57.765Z,19.20
2018-08-30T01:16:25.191Z,19.10
2018-08-30T01:18:52.608Z,19.10
2018-08-30T01:21:20.114Z,19.10
2018-08-30T01:23:47.717Z,19.00
2018-08-30T01:26:15.214Z,18.90
2018-08-30T01:28:42.636Z,19.00
2018-08-30T01:31:10.282Z,18.80
2018-08-30T01:33:37.708Z,18.80
2018-08-30T01:36:05.253Z,18.60
2018-08-30T01:38:32.672Z,18.50
2018-08-30T01:41:00.120Z,18.40
2018-08-30T01:43:27.607Z,18.30
2018-08-30T01:45:55.036Z,18.20
2018-08-30T01:48:22.511Z,18.30
2018-08-30T01:50:49.944Z,18.30
2018-08-30T01:53:17.399Z,18.30
2018-08-30T01:55:44.956Z,18.40
2018-08-30T01:58:12.500Z,18.40
2018-08-30T02:00:39.995Z,18.40
2018-08-30T02:03:07.486Z,18.40
2018-08-30T02:05:34.915Z,18.40
2018-08-30T02:08:02.357Z,18.40
2018-08-30T02:10:29.935Z,18.20
2018-08-30T02:12:57.472Z,18.10
2018-08-30T02:15:25.031Z,18.10
2018-08-30T02:17:52.491Z,18.00
2018-08-30T02:20:20.011Z,18.10
2018-08-30T02:22:47.532Z,18.10
2018-08-30T02:25:14.953Z,18.10
2018-08-30T02:27:42.578Z,18.20
2018-08-30T02:30:10.008Z,18.20
2018-08-30T02:32:37.446Z,18.20
2018-08-30T02:35:04.928Z,18.30
2018-08-30T02:37:32.352Z,18.20
2018-08-30T02:40:00.156Z,18.30
2018-08-30T02:42:27.586Z,18.30
2018-08-30T02:44:55.021Z,18.40
2018-08-30T02:47:22.460Z,18.40
2018-08-30T02:49:49.909Z,18.40
2018-08-30T02:52:17.351Z,18.40
2018-08-30T02:54:44.791Z,18.40
2018-08-30T02:57:12.279Z,18.40
2018-08-30T02:59:40.066Z,18.40
2018-08-30T03:02:07.498Z,18.40
2018-08-30T03:04:34.949Z,18.30
2018-08-30T03:07:02.510Z,18.30
2018-08-30T03:09:29.936Z,18.40
2018-08-30T03:11:57.459Z,18.50
2018-08-30T03:14:25.055Z,18.50
2018-08-30T03:16:52.486Z,18.50
2018-08-30T03:19:20.021Z,18.50
2018-08-30T03:21:47.460Z,18.30
2018-08-30T03:24:14.898Z,18.30
2018-08-30T03:26:42.543Z,18.30
2018-08-30T03:29:09.996Z,18.40
2018-08-30T03:31:37.568Z,18.30
2018-08-30T03:34:05.166Z,18.30
2018-08-30T03:36:32.797Z,18.40
2018-08-30T03:39:00.229Z,18.40
2018-08-30T03:41:27.688Z,18.50
2018-08-30T03:43:55.196Z,18.50
2018-08-30T03:46:22.652Z,18.60
2018-08-30T03:48:50.116Z,18.50
2018-08-30T03:51:17.619Z,18.40
2018-08-30T03:53:45.059Z,18.40
2018-08-30T03:56:12.499Z,18.40
2018-08-30T03:58:39.960Z,18.30
2018-08-30T04:01:07.456Z,18.20
2018-08-30T04:03:35.171Z,18.20
2018-08-30T04:06:02.660Z,18.20
2018-08-30T04:08:30.100Z,18.20
2018-08-30T04:10:57.577Z,18.00
2018-08-30T04:13:25.062Z,18.10
2018-08-30T04:15:52.733Z,18.10
2018-08-30T04:18:20.169Z,18.10
2018-08-30T04:20:47.714Z,18.10
2018-08-30T04:23:15.239Z,18.00
2018-08-30T04:25:42.703Z,18.00
2018-08-30T04:28:10.174Z,18.00
2018-08-30T04:30:37.615Z,18.10
2018-08-30T04:33:05.097Z,18.30
2018-08-30T04:35:32.532Z,18.20
2018-08-30T04:37:59.963Z,18.20
2018-08-30T04:40:28.612Z,18.30
2018-08-30T04:42:56.066Z,18.30
2018-08-30T04:45:23.627Z,18.00
2018-08-30T04:47:51.154Z,18.00
2018-08-30T04:50:19.032Z,18.00
2018-08-30T04:52:46.424Z,18.10
2018-08-30T04:55:13.904Z,17.90
2018-08-30T04:57:41.396Z,18.00
2018-08-30T05:00:08.832Z,17.90
2018-08-30T05:02:36.307Z,18.00
2018-08-30T05:05:03.756Z,17.90
2018-08-30T05:07:31.283Z,18.00
2018-08-30T05:09:58.819Z,18.10
2018-08-30T05:12:26.287Z,18.20
2018-08-30T05:14:53.864Z,18.10
2018-08-30T05:17:21.311Z,18.10
2018-08-30T05:19:48.740Z,18.20
2018-08-30T05:22:16.415Z,18.30
2018-08-30T05:24:43.876Z,18.30
2018-08-30T05:27:11.396Z,18.20
2018-08-30T05:29:38.917Z,18.20
2018-08-30T05:32:06.324Z,18.10
2018-08-30T05:34:33.765Z,18.10
2018-08-30T05:37:01.216Z,18.00
2018-08-30T05:39:28.747Z,18.00
2018-08-30T05:41:56.251Z,18.00
2018-08-30T05:44:23.706Z,18.00
2018-08-30T05:46:51.280Z,17.90
2018-08-30T05:49:18.987Z,18.10
2018-08-30T05:51:46.495Z,18.10
2018-08-30T05:54:13.939Z,18.10
2018-08-30T05:56:41.400Z,18.10
2018-08-30T05:59:08.857Z,18.10
2018-08-30T06:01:36.280Z,18.10
2018-08-30T06:04:03.856Z,18.10
2018-08-30T06:06:31.290Z,18.10
2018-08-30T06:08:58.837Z,18.10
2018-08-30T06:11:26.295Z,18.20
2018-08-30T06:13:53.763Z,18.20
2018-08-30T06:16:21.271Z,18.30
2018-08-30T06:18:48.747Z,18.30
2018-08-30T06:21:16.200Z,18.40
2018-08-30T06:23:43.696Z,18.20
2018-08-30T06:26:11.103Z,18.30
2018-08-30T06:28:38.632Z,18.30
2018-08-30T06:31:06.062Z,18.40
2018-08-30T06:33:33.752Z,18.50
2018-08-30T06:36:01.176Z,18.50
2018-08-30T06:38:28.655Z,18.70
2018-08-30T06:40:56.040Z,18.70
2018-08-30T06:43:23.495Z,18.80
2018-08-30T06:45:51.007Z,18.90
2018-08-30T06:48:18.443Z,18.90
2018-08-30T06:50:46.102Z,18.90
2018-08-30T06:53:13.608Z,18.90
2018-08-30T06:55:41.039Z,18.90
2018-08-30T06:58:08.503Z,18.80
2018-08-30T07:00:35.938Z,18.80
2018-08-30T07:03:03.381Z,18.80
2018-08-30T07:05:30.847Z,18.90
2018-08-30T07:07:58.385Z,18.90
2018-08-30T07:10:25.811Z,19.00
2018-08-30T07:12:53.248Z,18.90
2018-08-30T07:15:20.847Z,18.90
2018-08-30T07:17:48.392Z,18.90
2018-08-30T07:20:15.800Z,19.00
2018-08-30T07:22:43.232Z,19.00
2018-08-30T07:25:10.743Z,19.10
2018-08-30T07:27:38.358Z,19.20
2018-08-30T07:30:07.476Z,19.10
2018-08-30T07:32:34.907Z,19.20
2018-08-30T07:35:02.471Z,19.10
2018-08-30T07:37:29.771Z,19.20
2018-08-30T07:39:57.208Z,19.10
2018-08-30T07:42:24.740Z,19.20
2018-08-30T07:44:52.191Z,19.30
2018-08-30T07:47:19.716Z,19.40
2018-08-30T07:49:47.128Z,19.30
2018-08-30T07:52:14.558Z,19.30
2018-08-30T07:54:42.177Z,19.30
2018-08-30T07:57:09.590Z,19.30
2018-08-30T07:59:37.003Z,19.30
2018-08-30T08:02:04.492Z,19.40
2018-08-30T08:04:31.919Z,19.40
2018-08-30T08:06:59.781Z,19.50
2018-08-30T08:09:27.181Z,19.60
2018-08-30T08:11:54.650Z,19.50
2018-08-30T08:14:22.068Z,19.50
2018-08-30T08:16:49.496Z,19.60
2018-08-30T08:19:16.935Z,19.70
2018-08-30T08:21:44.393Z,19.80
2018-08-30T08:24:11.916Z,19.80
2018-08-30T08:26:39.516Z,20.00
2018-08-30T08:29:07.052Z,20.10
2018-08-30T08:31:34.495Z,20.00
2018-08-30T08:34:02.268Z,19.90
2018-08-30T08:36:29.859Z,20.00
2018-08-30T08:38:57.366Z,20.10
2018-08-30T08:41:24.868Z,20.10
2018-08-30T08:43:52.318Z,20.10
2018-08-30T08:46:19.739Z,20.30
2018-08-30T08:48:47.163Z,20.70
2018-08-30T08:51:14.872Z,20.80
2018-08-30T08:53:42.362Z,21.00
2018-08-30T08:56:09.835Z,21.10
2018-08-30T08:58:37.395Z,21.10
2018-08-30T09:01:04.768Z,21.20
2018-08-30T09:03:32.316Z,21.10
2018-08-30T09:05:59.733Z,21.30
2018-08-30T09:08:27.195Z,21.40
2018-08-30T09:10:54.928Z,21.40
2018-08-30T09:13:22.476Z,21.40
2018-08-30T09:15:50.017Z,21.50
2018-08-30T09:18:17.497Z,21.20
2018-08-30T09:20:45.035Z,21.30
2018-08-30T09:23:12.563Z,21.20
2018-08-30T09:25:39.918Z,21.10
2018-08-30T09:28:07.419Z,21.10
2018-08-30T09:30:34.969Z,21.00
2018-08-30T09:33:02.487Z,21.10
2018-08-30T09:35:29.923Z,21.00
2018-08-30T09:37:57.433Z,20.90
2018-08-30T09:40:24.891Z,20.90
2018-08-30T09:42:52.403Z,20.80
2018-08-30T09:45:19.928Z,20.90
2018-08-30T09:47:47.359Z,21.00
2018-08-30T09:50:14.943Z,21.10
2018-08-30T09:52:42.450Z,21.20
2018-08-30T09:55:09.915Z,21.60
2018-08-30T09:57:37.438Z,21.90
2018-08-30T10:00:05.487Z,22.20
2018-08-30T10:02:33.959Z,22.60
2018-08-30T10:05:01.431Z,22.90
2018-08-30T10:07:28.868Z,23.10
2018-08-30T10:09:56.366Z,23.10
2018-08-30T10:12:23.804Z,23.20
2018-08-30T10:14:51.283Z,23.30
2018-08-30T10:17:18.719Z,23.20
2018-08-30T10:19:46.148Z,23.00
2018-08-30T10:22:13.599Z,23.00
2018-08-30T10:24:41.115Z,23.10
2018-08-30T10:27:08.651Z,23.30
2018-08-30T10:29:36.083Z,23.60
2018-08-30T10:32:03.572Z,23.90
2018-08-30T10:34:31.048Z,24.10
2018-08-30T10:36:58.561Z,24.30
2018-08-30T10:39:25.958Z,24.50
2018-08-30T10:41:53.504Z,24.20
2018-08-30T10:44:21.107Z,24.20
2018-08-30T10:46:48.531Z,24.00
2018-08-30T10:49:16.032Z,23.90
2018-08-30T10:51:43.523Z,23.80
2018-08-30T10:54:10.970Z,23.90
2018-08-30T10:56:38.588Z,23.90
2018-08-30T10:59:06.131Z,23.90
2018-08-30T11:01:33.636Z,23.90
2018-08-30T11:04:01.323Z,23.90
2018-08-30T11:06:28.797Z,23.50
2018-08-30T11:08:56.399Z,23.50
2018-08-30T11:11:23.824Z,23.20
2018-08-30T11:13:51.271Z,23.40
2018-08-30T11:16:18.883Z,23.30
2018-08-30T11:18:46.317Z,23.40
2018-08-30T11:21:13.764Z,23.30
2018-08-30T11:23:41.220Z,23.10
2018-08-30T11:26:08.682Z,23.20
2018-08-30T11:28:36.212Z,23.10
2018-08-30T11:31:03.747Z,23.00
2018-08-30T11:33:31.393Z,23.10
2018-08-30T11:35:58.843Z,23.40
2018-08-30T11:38:26.279Z,23.60
2018-08-30T11:40:53.756Z,23.80
2018-08-30T11:43:21.281Z,23.90
2018-08-30T11:45:49.724Z,23.90
2018-08-30T11:48:17.151Z,23.80
2018-08-30T11:50:44.593Z,23.80
2018-08-30T11:53:12.084Z,23.60
2018-08-30T11:55:39.558Z,23.60
2018-08-30T11:58:07.197Z,23.60
2018-08-30T12:00:34.693Z,23.60
2018-08-30T12:03:02.140Z,23.50
2018-08-30T12:05:29.635Z,23.70
2018-08-30T12:07:57.180Z,23.80
2018-08-30T12:10:24.740Z,24.00
2018-08-30T12:12:52.056Z,24.10
2018-08-30T12:15:19.514Z,24.10
2018-08-30T12:17:46.964Z,24.30
2018-08-30T12:20:14.498Z,24.40
2018-08-30T12:22:41.947Z,24.40
2018-08-30T12:25:09.448Z,24.30
2018-08-30T12:27:36.903Z,24.50
2018-08-30T12:30:04.574Z,24.60
2018-08-30T12:32:32.072Z,24.70
2018-08-30T12:34:59.612Z,24.50
2018-08-30T12:37:27.040Z,24.60
2018-08-30T12:39:54.722Z,24.70
2018-08-30T12:42:22.180Z,24.50
2018-08-30T12:44:49.584Z,24.10
2018-08-30T12:47:17.161Z,23.80
2018-08-30T12:49:45.472Z,23.70
2018-08-30T12:52:13.260Z,23.50
2018-08-30T12:54:40.581Z,23.30
2018-08-30T12:57:08.118Z,23.30
2018-08-30T12:59:40.854Z,23.30
2018-08-30T13:02:08.343Z,23.40
2018-08-30T13:04:35.969Z,23.50
2018-08-30T13:07:03.519Z,23.50
2018-08-30T13:09:30.989Z,23.60
2018-08-30T13:11:59.589Z,23.70
2018-08-30T13:14:27.329Z,23.70
2018-08-30T13:16:54.799Z,23.50
2018-08-30T13:19:22.599Z,23.50
2018-08-30T13:21:49.997Z,23.50
2018-08-30T13:24:17.750Z,23.50
2018-08-30T13:26:45.299Z,23.50
2018-08-30T13:29:12.761Z,23.60
2018-08-30T13:31:40.630Z,23.70
2018-08-30T13:34:07.918Z,23.70
2018-08-30T13:36:35.368Z,23.80
2018-08-30T13:39:02.867Z,23.70
2018-08-30T13:41:31.683Z,23.60
2018-08-30T13:43:59.057Z,23.70
2018-08-30T13:46:26.439Z,23.80
2018-08-30T13:48:54.017Z,23.80
2018-08-30T13:51:21.441Z,23.70
2018-08-30T13:53:48.886Z,23.60
2018-08-30T13:56:16.520Z,23.60
2018-08-30T13:58:44.272Z,23.60
2018-08-30T14:01:11.695Z,23.50
2018-08-30T14:03:38.862Z,23.30
2018-08-30T14:06:06.356Z,23.20
2018-08-30T14:08:33.896Z,23.20
2018-08-30T14:11:01.480Z,23.20
2018-08-30T14:13:28.933Z,23.10
2018-08-30T14:15:56.171Z,23.00
2018-08-30T14:18:23.679Z,22.80
2018-08-30T14:20:51.228Z,22.80
2018-08-30T14:23:18.720Z,22.80
2018-08-30T14:25:46.155Z,22.80
2018-08-30T14:28:13.751Z,22.90
2018-08-30T14:30:41.177Z,22.80
2018-08-30T14:33:08.778Z,22.80
2018-08-30T14:35:36.111Z,22.80
2018-08-30T14:38:03.600Z,22.80
2018-08-30T14:40:31.181Z,22.90
2018-08-30T14:42:58.675Z,23.00
2018-08-30T14:45:26.028Z,22.90
2018-08-30T14:47:53.721Z,22.90
2018-08-30T14:50:21.242Z,22.90
2018-08-30T14:52:48.676Z,22.90
2018-08-30T14:55:16.190Z,22.90
2018-08-30T14:57:43.700Z,22.90
2018-08-30T15:00:11.441Z,22.90
2018-08-30T15:02:38.815Z,22.90
2018-08-30T15:05:06.262Z,22.90
2018-08-30T15:07:33.872Z,22.90
2018-08-30T15:10:01.267Z,22.70
2018-08-30T15:12:28.907Z,22.70
2018-08-30T15:14:56.353Z,22.80
2018-08-30T15:17:23.859Z,22.80
2018-08-30T15:19:51.299Z,22.80
2018-08-30T15:22:18.639Z,22.70
2018-08-30T15:24:46.194Z,22.70
2018-08-30T15:27:13.921Z,22.70
2018-08-30T15:29:41.183Z,22.70
2018-08-30T15:32:08.675Z,22.80
2018-08-30T15:34:36.105Z,22.80
2018-08-30T15:37:03.672Z,22.70
2018-08-30T15:39:31.095Z,22.60
2018-08-30T15:41:58.603Z,22.50
2018-08-30T15:44:26.022Z,22.50
2018-08-30T15:46:53.639Z,22.50
2018-08-30T15:49:21.047Z,22.40
2018-08-30T15:51:48.471Z,22.50
2018-08-30T15:54:15.943Z,22.50
2018-08-30T15:56:43.755Z,22.50
2018-08-30T15:59:11.530Z,22.50
2018-08-30T16:01:38.752Z,22.50
2018-08-30T16:04:06.219Z,22.60
2018-08-30T16:06:33.754Z,22.40
2018-08-30T16:09:01.111Z,22.40
2018-08-30T16:11:28.619Z,22.40
2018-08-30T16:13:56.081Z,22.40
2018-08-30T16:16:23.688Z,22.30
2018-08-30T16:18:51.323Z,22.20
2018-08-30T16:21:18.735Z,22.20
2018-08-30T16:23:46.176Z,22.30
2018-08-30T16:26:13.854Z,22.30
2018-08-30T16:28:41.382Z,22.40
2018-08-30T16:31:08.818Z,22.40
2018-08-30T16:33:36.249Z,22.30
2018-08-30T16:36:03.744Z,22.20
2018-08-30T16:38:31.255Z,22.20
2018-08-30T16:40:58.765Z,22.30
2018-08-30T16:43:26.247Z,22.10
2018-08-30T16:45:53.731Z,22.20
2018-08-30T16:48:21.221Z,22.10
2018-08-30T16:50:48.755Z,22.00
2018-08-30T16:53:16.262Z,22.10
2018-08-30T16:55:43.807Z,22.00
2018-08-30T16:58:11.164Z,21.90
2018-08-30T17:00:38.601Z,21.90
2018-08-30T17:03:06.562Z,21.80
2018-08-30T17:05:34.055Z,21.90
2018-08-30T17:08:01.472Z,21.90
2018-08-30T17:10:28.935Z,21.90
2018-08-30T17:12:57.264Z,22.00
2018-08-30T17:15:24.911Z,21.80
2018-08-30T17:17:52.820Z,21.80
2018-08-30T17:20:23.539Z,21.80
2018-08-30T17:22:51.041Z,21.80
2018-08-30T17:25:18.524Z,21.80
2018-08-30T17:27:45.983Z,21.80
2018-08-30T17:30:14.640Z,21.70
2018-08-30T17:32:42.142Z,21.60
2018-08-30T17:35:09.587Z,21.60
2018-08-30T17:37:37.062Z,21.70
2018-08-30T17:40:04.735Z,21.70
2018-08-30T17:42:32.392Z,21.70
2018-08-30T17:44:59.826Z,21.70
2018-08-30T17:47:27.370Z,21.70
2018-08-30T17:49:54.844Z,21.60
2018-08-30T17:52:22.356Z,21.60
2018-08-30T17:54:49.795Z,21.60
2018-08-30T17:57:17.333Z,21.70
2018-08-30T17:59:44.657Z,21.60
2018-08-30T18:02:12.084Z,21.50
2018-08-30T18:04:39.727Z,21.40
2018-08-30T18:07:08.242Z,21.50
2018-08-30T18:09:35.632Z,21.50
2018-08-30T18:12:03.090Z,21.50
2018-08-30T18:14:30.532Z,21.40
2018-08-30T18:16:58.032Z,21.20
2018-08-30T18:19:25.516Z,21.00
2018-08-30T18:21:52.925Z,20.90
2018-08-30T18:24:20.496Z,20.90
2018-08-30T18:26:47.885Z,20.80
2018-08-30T18:29:15.440Z,20.60
2018-08-30T18:31:42.884Z,20.60
2018-08-30T18:34:10.329Z,20.60
2018-08-30T18:36:37.904Z,20.50
2018-08-30T18:39:06.988Z,20.60
2018-08-30T18:41:34.539Z,20.60
2018-08-30T18:44:02.020Z,20.60
2018-08-30T18:46:29.473Z,20.40
2018-08-30T18:48:56.904Z,20.40
2018-08-30T18:51:24.332Z,20.40
2018-08-30T18:53:51.999Z,20.30
2018-08-30T18:56:19.424Z,20.30
2018-08-30T18:58:46.965Z,20.30
2018-08-30T19:01:14.399Z,20.30
2018-08-30T19:03:41.831Z,20.20
2018-08-30T19:06:09.312Z,20.20
2018-08-30T19:08:36.743Z,20.20
2018-08-30T19:11:04.260Z,20.20
2018-08-30T19:13:31.827Z,20.10
2018-08-30T19:16:05.863Z,20.10
2018-08-30T19:18:39.823Z,20.00
2018-08-30T19:21:07.310Z,19.80
2018-08-30T19:23:34.835Z,19.70
2018-08-30T19:26:02.287Z,19.60
2018-08-30T19:28:29.816Z,19.60
2018-08-30T19:30:57.318Z,19.40
2018-08-30T19:33:25.858Z,19.20
2018-08-30T19:35:58.848Z,19.10
2018-08-30T19:38:26.300Z,19.10
2018-08-30T19:40:59.339Z,19.10
2018-08-30T19:43:26.859Z,19.00
2018-08-30T19:45:54.320Z,19.00
2018-08-30T19:48:21.835Z,19.00
2018-08-30T19:50:49.349Z,18.90
2018-08-30T19:53:16.787Z,18.90
2018-08-30T19:55:44.415Z,18.90
2018-08-30T19:58:11.888Z,18.70
2018-08-30T20:00:39.389Z,18.70
2018-08-30T20:03:07.972Z,18.70
2018-08-30T20:05:37.495Z,18.60
2018-08-30T20:08:05.195Z,18.70
2018-08-30T20:10:32.751Z,18.70
2018-08-30T20:13:00.183Z,18.60
2018-08-30T20:15:28.645Z,18.60
2018-08-30T20:17:56.229Z,18.60
2018-08-30T20:20:23.806Z,18.50
2018-08-30T20:22:51.382Z,18.40
2018-08-30T20:25:18.811Z,18.30
2018-08-30T20:27:46.287Z,18.20
2018-08-30T20:30:13.815Z,18.30
2018-08-30T20:32:41.243Z,18.20
2018-08-30T20:35:08.736Z,18.10
2018-08-30T20:37:36.171Z,18.10
2018-08-30T20:40:03.742Z,18.10
2018-08-30T20:42:31.275Z,18.00
2018-08-30T20:44:58.671Z,18.00
2018-08-30T20:47:26.275Z,18.00
2018-08-30T20:49:53.692Z,17.90
2018-08-30T20:52:21.133Z,17.90
2018-08-30T20:54:48.640Z,17.90
2018-08-30T20:57:16.067Z,17.90
2018-08-30T20:59:43.612Z,17.70
2018-08-30T21:02:11.060Z,17.70
2018-08-30T21:04:38.592Z,17.60
2018-08-30T21:07:06.021Z,17.50
2018-08-30T21:09:33.451Z,17.30
2018-08-30T21:12:00.999Z,17.30
2018-08-30T21:14:28.543Z,17.30
2018-08-30T21:16:55.975Z,17.20
2018-08-30T21:19:23.524Z,17.20
2018-08-30T21:21:51.052Z,17.10
2018-08-30T21:24:18.499Z,17.10
2018-08-30T21:26:46.172Z,17.00
2018-08-30T21:29:13.604Z,17.00
2018-08-30T21:31:41.040Z,17.00
2018-08-30T21:34:08.472Z,17.00
2018-08-30T21:36:35.997Z,17.00
2018-08-30T21:39:04.922Z,16.90
2018-08-30T21:41:32.347Z,16.80
2018-08-30T21:43:59.850Z,16.80
2018-08-30T21:46:27.355Z,16.80
2018-08-30T21:48:55.067Z,16.80
2018-08-30T21:51:22.510Z,16.80
2018-08-30T21:53:49.956Z,16.70
2018-08-30T21:56:17.418Z,16.70
2018-08-30T21:58:44.844Z,16.70
2018-08-30T22:01:12.299Z,16.60
2018-08-30T22:03:39.805Z,16.60
2018-08-30T22:06:07.275Z,16.60
2018-08-30T22:08:34.708Z,16.60
2018-08-30T22:11:02.270Z,16.50
2018-08-30T22:13:29.786Z,16.50
2018-08-30T22:15:57.202Z,16.50
2018-08-30T22:18:24.791Z,16.50
2018-08-30T22:20:52.277Z,16.50
2018-08-30T22:23:19.746Z,16.50
2018-08-30T22:25:47.287Z,16.50
2018-08-30T22:28:14.727Z,16.40
2018-08-30T22:30:42.292Z,16.30
2018-08-30T22:33:09.762Z,16.30
2018-08-30T22:35:37.255Z,16.20
2018-08-30T22:38:04.817Z,16.20
2018-08-30T22:40:32.228Z,16.20
2018-08-30T22:42:59.810Z,16.20
2018-08-30T22:45:27.291Z,16.20
2018-08-30T22:47:54.811Z,16.20
2018-08-30T22:50:22.236Z,16.10
2018-08-30T22:52:49.719Z,16.10
2018-08-30T22:55:17.143Z,16.10
2018-08-30T22:57:44.686Z,16.10
2018-08-30T23:00:12.071Z,16.00
2018-08-30T23:02:39.649Z,16.00
2018-08-30T23:05:07.245Z,15.90
2018-08-30T23:07:34.704Z,15.80
2018-08-30T23:10:02.524Z,15.70
2018-08-30T23:12:30.008Z,15.80
2018-08-30T23:14:57.509Z,15.80
2018-08-30T23:17:24.931Z,15.70
2018-08-30T23:19:52.384Z,15.70
2018-08-30T23:22:20.004Z,15.70
2018-08-30T23:24:47.448Z,15.80
2018-08-30T23:27:15.028Z,15.70
2018-08-30T23:29:42.512Z,15.60
2018-08-30T23:32:09.948Z,15.70
2018-08-30T23:34:37.463Z,15.80
2018-08-30T23:37:05.106Z,15.70
2018-08-30T23:39:32.600Z,15.70
2018-08-30T23:42:00.024Z,15.70
2018-08-30T23:44:27.561Z,15.70
2018-08-30T23:46:55.299Z,15.70
2018-08-30T23:49:22.780Z,15.60
2018-08-30T23:51:50.193Z,15.60
2018-08-30T23:54:17.809Z,15.50
2018-08-30T23:56:45.247Z,15.50
2018-08-30T23:59:18.460Z,15.50
